Paintersville, Pennsylvania
Current Conditions -  °F | °C
As of 10:53 AM on Sunday 25 Jan 2015 (Local Time) from KUNV Reporting Station
Light Snow Light Snow  
Wind Chill: 30°   Ceiling: 2400
Heat Index: 34°   Visibility: 2mi
Dew Point: 30°   Wind: 5mph
Humidity: 87%   Direction: 270°W
Pressure: 29.78"   Gusts: NA
Location:  40.6073°N, 77.5812°W
Report Text: KUNV 251553Z 27004KT 2SM -SN OVC024 01/M01 A2978
Loading
Personal Weather Stations






























Interactive Weather Map New forecast layout! Learn more

10-Day Weather Forecast

Advertisements
Track Severe Weather on mobile